Time;durP1;ratioP1;P1;durP2;ratioP2;P2;SDS_P1;SDS_P2;PMS_P1;PMS_P2;Temp;Humidity;BMP_temperature;BMP_pressure;BME280_temperature;BME280_humidity;BME280_pressure;Samples;Min_cycle;Max_cycle;Signal;HPM_P1;HPM_P2
2023/06/22 16:43:01;;;;;;;1.73;1.63;;;;;;;21.47;100.00;91418.69;5067829;28;20387;-67
2023/06/22 16:45:26;;;;;;;3.13;2.22;;;;;;;21.47;100.00;91418.69;5068346;28;20541;-66
2023/06/22 16:47:52;;;;;;;1.65;1.55;;;;;;;21.48;100.00;91418.34;5067575;28;20491;-68
2023/06/22 16:50:18;;;;;;;1.10;1.10;;;;;;;21.37;100.00;91422.00;5068164;28;20099;-67
2023/06/22 16:52:45;;;;;;;2.90;2.60;;;;;;;21.23;100.00;91419.81;5068462;28;20107;-67
2023/06/22 16:55:11;;;;;;;1.70;1.60;;;;;;;21.04;100.00;91417.97;5068252;28;20021;-66
2023/06/22 16:57:36;;;;;;;2.38;2.25;;;;;;;21.00;100.00;91413.66;5067545;28;20036;-67
2023/06/22 17:00:08;;;;;;;3.65;1.85;;;;;;;20.99;100.00;91420.97;5067960;28;20032;-67
2023/06/22 17:02:38;;;;;;;3.33;2.25;;;;;;;20.92;100.00;91428.94;5067166;28;20414;-66
2023/06/22 17:05:04;;;;;;;2.40;1.83;;;;;;;20.93;100.00;91415.06;5047833;28;20060;-67
2023/06/22 17:07:33;;;;;;;2.85;2.05;;;;;;;20.98;100.00;91415.91;5063656;28;20067;-66
2023/06/22 17:10:02;;;;;;;3.28;1.92;;;;;;;20.94;100.00;91421.25;5065745;28;20060;-68
2023/06/22 17:12:29;;;;;;;1.65;1.55;;;;;;;20.99;100.00;91423.69;5065012;28;20067;-72
2023/06/22 17:15:21;;;;;;;2.38;2.22;;;;;;;21.07;100.00;91424.56;5195372;22;20064;-75
2023/06/22 17:17:47;;;;;;;4.95;2.40;;;;;;;21.12;100.00;91419.63;5029225;28;20053;-65
2023/06/22 17:20:12;;;;;;;1.45;1.20;;;;;;;21.18;100.00;91415.50;5047076;28;20025;-62
2023/06/22 17:22:38;;;;;;;1.50;1.40;;;;;;;21.13;100.00;91412.31;5062593;28;20049;-62
2023/06/22 17:25:09;;;;;;;1.48;1.38;;;;;;;21.21;100.00;91420.19;5047228;28;20101;-66
2023/06/22 17:27:35;;;;;;;1.65;1.50;;;;;;;21.22;100.00;91412.84;5047057;28;20554;-68
2023/06/22 17:30:09;;;;;;;3.42;2.03;;;;;;;21.16;100.00;91414.31;5028991;28;20437;-69
2023/06/22 17:32:35;;;;;;;1.77;1.67;;;;;;;21.01;100.00;91415.97;5046638;28;20025;-67
2023/06/22 17:35:02;;;;;;;1.50;1.38;;;;;;;20.85;100.00;91418.03;5046990;28;20025;-67
2023/06/22 17:37:33;;;;;;;1.35;1.25;;;;;;;20.87;100.00;91419.22;5047036;28;20032;-67
2023/06/22 17:39:58;;;;;;;1.33;1.33;;;;;;;20.97;100.00;91420.53;5047265;28;20029;-67
2023/06/22 17:42:24;;;;;;;7.88;1.80;;;;;;;20.87;100.00;91413.03;5046904;28;20503;-68
2023/06/22 17:44:49;;;;;;;4.63;2.97;;;;;;;20.82;100.00;91413.31;5046478;28;20043;-66
2023/06/22 17:47:23;;;;;;;3.58;2.33;;;;;;;20.69;100.00;91425.44;5046945;28;20036;-66
2023/06/22 17:49:48;;;;;;;1.83;1.73;;;;;;;20.60;100.00;91434.56;5046842;28;20025;-67
2023/06/22 17:52:21;;;;;;;1.83;1.73;;;;;;;20.59;100.00;91432.22;5045623;28;20406;-66
2023/06/22 17:54:50;;;;;;;2.10;1.52;;;;;;;20.55;100.00;91436.78;5033172;28;20021;-67
2023/06/22 17:57:17;;;;;;;11.45;1.77;;;;;;;20.49;100.00;91427.38;5033303;28;20037;-67
2023/06/22 17:59:51;;;;;;;1.92;1.70;;;;;;;20.48;100.00;91432.00;5033068;28;20029;-67
2023/06/22 18:02:23;;;;;;;3.42;2.25;;;;;;;20.51;100.00;91425.09;5033267;28;20044;-67
2023/06/22 18:04:48;;;;;;;2.75;1.55;;;;;;;20.51;100.00;91428.59;5033150;28;20457;-66
2023/06/22 18:07:14;;;;;;;2.13;1.92;;;;;;;20.43;100.00;91418.00;5021700;28;20029;-66
2023/06/22 18:09:40;;;;;;;3.67;2.85;;;;;;;20.27;100.00;91418.03;5013236;28;20431;-66
2023/06/22 18:12:09;;;;;;;6.53;1.73;;;;;;;20.26;100.00;91419.97;5013319;28;20034;-66
2023/06/22 18:14:35;;;;;;;5.07;2.80;;;;;;;20.11;100.00;91428.13;5012726;28;20091;-69
2023/06/22 18:17:02;;;;;;;1.80;1.65;;;;;;;20.08;100.00;91424.22;5011982;28;20054;-68
2023/06/22 18:19:31;;;;;;;2.20;2.10;;;;;;;20.01;100.00;91416.72;5028340;28;20483;-70
2023/06/22 18:21:56;;;;;;;1.67;1.58;;;;;;;19.99;100.00;91429.03;5026616;28;20044;-69
2023/06/22 18:24:22;;;;;;;1.10;1.10;;;;;;;20.02;100.00;91421.00;5011647;28;20042;-70
2023/06/22 18:26:49;;;;;;;1.00;1.00;;;;;;;20.13;100.00;91425.84;5012981;28;20116;-68
2023/06/22 18:29:15;;;;;;;1.35;1.25;;;;;;;20.01;100.00;91405.16;5011645;28;20030;-68
2023/06/22 18:31:42;;;;;;;2.20;2.03;;;;;;;20.08;100.00;91421.53;4995453;28;20048;-69
2023/06/22 18:34:13;;;;;;;1.95;1.75;;;;;;;20.12;100.00;91408.88;5012780;28;20029;-70
2023/06/22 18:36:46;;;;;;;3.25;2.05;;;;;;;20.13;100.00;91421.22;5012766;28;20561;-69
2023/06/22 18:39:12;;;;;;;;;;;;;;;20.15;100.00;91432.47;5013090;28;20029;-68
2023/06/22 18:41:43;;;;;;;2.72;1.60;;;;;;;20.09;100.00;91425.00;5013157;28;19917;-68
2023/06/22 18:44:22;;;;;;;1.48;1.38;;;;;;;20.01;100.00;91424.84;5012360;28;20065;-68
2023/06/22 18:47:05;;;;;;;1.65;1.55;;;;;;;20.00;100.00;91420.56;5012707;28;20032;-66
2023/06/22 18:49:38;;;;;;;4.63;2.67;;;;;;;20.18;100.00;91436.38;5013213;28;20030;-68
2023/06/22 18:52:27;;;;;;;1.77;1.67;;;;;;;20.17;100.00;91437.50;5012239;28;20077;-68
2023/06/22 18:54:54;;;;;;;2.17;2.05;;;;;;;20.14;100.00;91449.03;5006159;28;20037;-67
2023/06/22 18:57:28;;;;;;;1.70;1.60;;;;;;;20.09;100.00;91452.03;5013681;28;20021;-69
2023/06/22 18:59:53;;;;;;;2.40;2.28;;;;;;;20.03;100.00;91454.19;5012769;28;20064;-66
2023/06/22 19:02:39;;;;;;;1.88;1.77;;;;;;;19.73;100.00;91440.44;5013188;28;20080;-67
2023/06/22 19:05:11;;;;;;;1.75;1.58;;;;;;;19.68;100.00;91454.19;5000548;28;20033;-68
2023/06/22 19:07:51;;;;;;;1.73;1.63;;;;;;;19.67;100.00;91453.41;4991059;28;20034;-68
2023/06/22 19:10:24;;;;;;;1.55;1.23;;;;;;;19.67;100.00;91452.63;4993948;28;20500;-68
2023/06/22 19:12:57;;;;;;;1.85;1.75;;;;;;;19.66;100.00;91456.47;5011929;28;20030;-68
2023/06/22 19:15:35;;;;;;;5.28;2.30;;;;;;;19.64;100.00;91458.72;4994336;28;20394;-70
2023/06/22 19:18:15;;;;;;;3.20;1.63;;;;;;;19.63;100.00;91457.94;5012985;28;20149;-69
2023/06/22 19:20:41;;;;;;;2.92;2.63;;;;;;;19.57;100.00;91464.75;5012753;28;20057;-66
2023/06/22 19:23:24;;;;;;;11.48;2.15;;;;;;;19.67;100.00;91458.03;5013207;28;20061;-67
2023/06/22 19:25:50;;;;;;;2.00;1.90;;;;;;;19.70;100.00;91460.03;5012915;28;20025;-67
2023/06/22 19:28:16;;;;;;;2.08;1.88;;;;;;;19.74;100.00;91453.59;5012442;28;20084;-68
2023/06/22 19:30:41;;;;;;;1.85;1.75;;;;;;;19.75;100.00;91465.16;5008380;28;20543;-69
2023/06/22 19:33:07;;;;;;;1.40;1.30;;;;;;;19.73;100.00;91464.75;5011616;28;20080;-69
2023/06/22 19:35:33;;;;;;;1.92;1.85;;;;;;;19.71;100.00;91458.88;5011595;28;20036;-67
2023/06/22 19:37:59;;;;;;;1.80;1.52;;;;;;;19.67;100.00;91463.44;5011840;28;20030;-68
2023/06/22 19:40:25;;;;;;;2.80;2.60;;;;;;;19.68;100.00;91465.00;5011749;28;20025;-69
2023/06/22 19:42:54;;;;;;;2.35;2.25;;;;;;;19.63;100.00;91457.19;5012159;28;20038;-68
2023/06/22 19:45:20;;;;;;;1.83;1.73;;;;;;;19.65;100.00;91458.38;5011452;28;20022;-66
2023/06/22 19:47:45;;;;;;;2.88;1.85;;;;;;;19.60;100.00;91464.06;5012295;28;20034;-66
2023/06/22 19:50:10;;;;;;;1.10;1.10;;;;;;;19.44;100.00;91458.66;5012525;28;20080;-65
2023/06/22 19:52:37;;;;;;;4.15;2.42;;;;;;;19.41;100.00;91462.06;5012335;28;20593;-67
2023/06/22 19:55:05;;;;;;;3.70;2.92;;;;;;;19.27;100.00;91456.31;5012198;28;20156;-65
2023/06/22 19:57:37;;;;;;;2.97;2.72;;;;;;;19.17;100.00;91453.34;5012125;28;20506;-67
2023/06/22 20:00:08;;;;;;;2.57;2.37;;;;;;;19.15;100.00;91453.69;5011835;28;20484;-66
2023/06/22 20:02:34;;;;;;;2.53;2.00;;;;;;;19.09;100.00;91452.38;5012343;28;20499;-66
2023/06/22 20:05:05;;;;;;;11.93;2.75;;;;;;;18.98;100.00;91444.03;5012006;28;20064;-65
2023/06/22 20:07:35;;;;;;;2.10;1.95;;;;;;;18.88;100.00;91436.44;5012082;28;20073;-65
2023/06/22 20:10:10;;;;;;;3.55;2.33;;;;;;;18.90;100.00;91450.34;5012061;28;20030;-67
2023/06/22 20:12:35;;;;;;;2.47;2.28;;;;;;;18.96;100.00;91440.13;5012318;28;20029;-66
2023/06/22 20:15:23;;;;;;;2.75;1.70;;;;;;;18.95;100.00;91438.56;5011269;28;20403;-68
2023/06/22 20:17:59;;;;;;;1.92;1.83;;;;;;;18.79;100.00;91439.31;5011897;28;20049;-71
2023/06/22 20:20:26;;;;;;;1.75;1.60;;;;;;;18.75;100.00;91449.19;5012271;28;20470;-67
2023/06/22 20:22:55;;;;;;;3.08;2.30;;;;;;;18.69;100.00;91441.72;5011833;28;20503;-67
2023/06/22 20:25:22;;;;;;;2.70;2.35;;;;;;;18.63;100.00;91432.31;5012145;28;20389;-68
2023/06/22 20:27:48;;;;;;;2.92;2.35;;;;;;;18.67;100.00;91439.38;5013069;28;20021;-67
2023/06/22 20:30:19;;;;;;;1.90;1.40;;;;;;;18.56;100.00;91432.88;5029511;28;20087;-67
2023/06/22 20:32:55;;;;;;;3.92;1.92;;;;;;;18.53;100.00;91414.72;5031168;28;20502;-67
2023/06/22 20:35:23;;;;;;;4.63;1.77;;;;;;;18.47;100.00;91424.19;5031459;28;20564;-67
2023/06/22 20:37:53;;;;;;;3.22;2.25;;;;;;;18.40;100.00;91416.69;5031562;28;20034;-67
2023/06/22 20:40:20;;;;;;;2.63;2.42;;;;;;;18.40;100.00;91423.97;5031661;28;20077;-68
2023/06/22 20:42:45;;;;;;;1.77;1.67;;;;;;;18.27;100.00;91426.72;5031711;28;20040;-67
2023/06/22 20:45:11;;;;;;;5.07;2.35;;;;;;;18.25;100.00;91425.50;5031291;28;20017;-67
2023/06/22 20:47:37;;;;;;;2.60;2.40;;;;;;;18.22;100.00;91428.88;5031423;28;20037;-67
2023/06/22 20:50:02;;;;;;;4.53;2.50;;;;;;;18.15;100.00;91418.72;5031420;28;20033;-67
2023/06/22 20:52:28;;;;;;;2.08;1.98;;;;;;;18.21;100.00;91417.31;5031519;28;20064;-67
2023/06/22 20:54:54;;;;;;;3.75;2.05;;;;;;;18.22;100.00;91412.72;5031331;28;20033;-66
2023/06/22 20:57:20;;;;;;;2.28;1.63;;;;;;;18.21;100.00;91416.53;5028933;28;20549;-66
2023/06/22 20:59:46;;;;;;;2.50;2.30;;;;;;;18.23;100.00;91415.06;5029079;28;20041;-67
2023/06/22 21:02:11;;;;;;;2.45;2.25;;;;;;;18.13;100.00;91404.78;5030851;28;20131;-67
2023/06/22 21:04:39;;;;;;;2.35;2.25;;;;;;;18.10;100.00;91413.53;5031494;28;20084;-67
2023/06/22 21:07:05;;;;;;;8.95;2.25;;;;;;;18.09;100.00;91420.06;5031824;28;20026;-67
2023/06/22 21:09:30;;;;;;;3.83;2.75;;;;;;;18.07;100.00;91416.94;5013578;28;20461;-68
2023/06/22 21:11:58;;;;;;;3.83;2.10;;;;;;;18.06;100.00;91422.66;5031314;28;20026;-67
2023/06/22 21:14:23;;;;;;;7.53;2.90;;;;;;;18.05;100.00;91407.63;5031128;28;20029;-68
2023/06/22 21:16:49;;;;;;;9.82;4.18;;;;;;;18.03;100.00;91412.56;5013283;28;20055;-68
2023/06/22 21:19:14;;;;;;;4.95;3.15;;;;;;;18.04;100.00;91406.84;5031511;28;20040;-68
2023/06/22 21:21:40;;;;;;;2.72;2.10;;;;;;;17.99;100.00;91401.72;5031254;28;20113;-68
2023/06/22 21:24:05;;;;;;;4.22;2.45;;;;;;;18.02;100.00;91411.78;5031514;28;20064;-68
2023/06/22 21:26:31;;;;;;;3.00;2.75;;;;;;;17.97;100.00;91420.09;5031004;28;20030;-67
2023/06/22 21:28:57;;;;;;;2.95;2.60;;;;;;;17.93;100.00;91405.75;5033712;28;20026;-66
2023/06/22 21:31:22;;;;;;;7.38;2.63;;;;;;;18.03;100.00;91407.97;5035122;28;20026;-67
2023/06/22 21:33:48;;;;;;;3.75;2.20;;;;;;;18.06;100.00;91403.81;5035403;28;20017;-66
2023/06/22 21:36:13;;;;;;;1.67;1.45;;;;;;;17.87;100.00;91404.44;5034784;28;20502;-66
2023/06/22 21:38:38;;;;;;;1.25;1.25;;;;;;;17.84;100.00;91415.91;5034732;28;20022;-66
2023/06/22 21:41:04;;;;;;;2.92;2.72;;;;;;;17.78;100.00;91411.84;5034894;28;20025;-67
2023/06/22 21:43:29;;;;;;;1.88;1.73;;;;;;;17.72;100.00;91407.84;5034838;28;20108;-67
2023/06/22 21:45:55;;;;;;;1.58;1.48;;;;;;;17.69;100.00;91397.75;5034558;28;20036;-67
2023/06/22 21:48:20;;;;;;;1.88;1.77;;;;;;;17.73;100.00;91401.34;5034571;28;20045;-67
2023/06/22 21:50:45;;;;;;;2.47;1.98;;;;;;;17.60;100.00;91397.84;5034776;28;20407;-67
2023/06/22 21:53:11;;;;;;;1.85;1.27;;;;;;;17.54;100.00;91402.69;5034890;28;20025;-67
2023/06/22 21:55:36;;;;;;;2.33;1.70;;;;;;;17.54;100.00;91399.22;5034479;28;20481;-67
2023/06/22 21:58:02;;;;;;;1.80;1.67;;;;;;;17.42;100.00;91385.78;5035032;28;20099;-67
2023/06/22 22:00:27;;;;;;;29.80;2.72;;;;;;;17.50;100.00;91391.03;5034312;28;20446;-67
2023/06/22 22:02:52;;;;;;;2.63;1.75;;;;;;;17.46;100.00;91392.81;5034250;28;20101;-67
2023/06/22 22:05:19;;;;;;;2.47;2.28;;;;;;;17.45;100.00;91396.63;5034433;28;20116;-67
2023/06/22 22:07:44;;;;;;;5.68;3.45;;;;;;;17.43;100.00;91398.88;5034452;28;20053;-67
2023/06/22 22:10:12;;;;;;;5.15;2.28;;;;;;;17.40;100.00;91394.19;5034435;28;20053;-67
2023/06/22 22:12:37;;;;;;;2.63;2.42;;;;;;;17.44;100.00;91389.69;5034403;28;20033;-67
2023/06/22 22:15:04;;;;;;;2.40;1.60;;;;;;;17.40;100.00;91388.81;5034248;28;20040;-67
2023/06/22 22:17:29;;;;;;;1.42;1.15;;;;;;;17.30;100.00;91381.97;5033943;28;20077;-67
2023/06/22 22:19:55;;;;;;;1.45;1.35;;;;;;;17.33;100.00;91383.97;5034085;28;20380;-67
2023/06/22 22:22:20;;;;;;;2.20;2.00;;;;;;;17.29;100.00;91383.09;5016169;28;20034;-67
2023/06/22 22:24:45;;;;;;;3.50;1.88;;;;;;;17.25;100.00;91370.69;5033904;28;20053;-67
2023/06/22 22:27:11;;;;;;;1.63;1.52;;;;;;;17.24;100.00;91388.72;5034081;28;20044;-67
2023/06/22 22:29:37;;;;;;;1.98;1.83;;;;;;;17.20;100.00;91384.34;5034045;28;20026;-67
2023/06/22 22:32:03;;;;;;;3.40;2.05;;;;;;;17.20;100.00;91387.03;5034065;28;20108;-67
2023/06/22 22:34:28;;;;;;;2.35;2.10;;;;;;;17.18;100.00;91381.97;5033734;28;20565;-67
2023/06/22 22:36:54;;;;;;;2.83;1.45;;;;;;;17.16;100.00;91378.06;5033967;28;20033;-67
2023/06/22 22:39:38;;;;;;;2.90;2.15;;;;;;;17.12;100.00;91382.56;5033741;28;20027;-67
2023/06/22 22:42:05;;;;;;;7.53;2.75;;;;;;;17.04;100.00;91381.53;5034034;28;20444;-67
2023/06/22 22:44:30;;;;;;;1.48;1.30;;;;;;;16.98;100.00;91382.91;5033725;28;20053;-66
2023/06/22 22:46:56;;;;;;;2.10;1.52;;;;;;;16.86;100.00;91377.50;5033563;28;20580;-67
2023/06/22 22:49:23;;;;;;;5.97;2.50;;;;;;;16.81;100.00;91372.38;5033531;28;20383;-67
2023/06/22 22:51:49;;;;;;;18.02;1.90;;;;;;;16.78;100.00;91379.19;5033470;28;20126;-67
2023/06/22 22:54:15;;;;;;;1.40;1.30;;;;;;;16.79;100.00;91372.69;5033237;28;20509;-66
2023/06/22 22:56:40;;;;;;;2.17;1.95;;;;;;;16.80;100.00;91366.22;5033578;28;20044;-67
2023/06/22 22:59:05;;;;;;;2.28;1.77;;;;;;;16.78;100.00;91368.44;5033376;28;20050;-67
2023/06/22 23:01:33;;;;;;;1.45;1.33;;;;;;;16.79;100.00;91372.69;5033114;28;20147;-67
2023/06/22 23:03:59;;;;;;;2.75;2.20;;;;;;;16.75;100.00;91369.13;5033418;28;20021;-67
2023/06/22 23:06:24;;;;;;;2.72;1.95;;;;;;;16.80;100.00;91366.22;5033062;28;20033;-67
2023/06/22 23:08:55;;;;;;;2.58;2.38;;;;;;;16.80;100.00;91365.44;5033615;28;20115;-67
2023/06/22 23:11:25;;;;;;;1.70;1.60;;;;;;;16.85;100.00;91367.88;5033066;28;20037;-68
2023/06/22 23:13:56;;;;;;;1.90;1.80;;;;;;;16.76;100.00;91354.56;5033133;28;20485;-68
2023/06/22 23:16:22;;;;;;;4.15;3.15;;;;;;;16.85;100.00;91362.50;5032708;28;20499;-68
2023/06/22 23:18:47;;;;;;;2.03;1.92;;;;;;;16.89;100.00;91364.22;5032907;28;20046;-68
2023/06/22 23:21:12;;;;;;;1.48;1.38;;;;;;;16.97;100.00;91354.44;5032844;28;20032;-67
2023/06/22 23:23:38;;;;;;;6.57;2.45;;;;;;;16.96;100.00;91353.66;5032790;28;20411;-68
2023/06/22 23:26:03;;;;;;;3.13;2.40;;;;;;;16.81;100.00;91356.25;5032963;28;20025;-68
2023/06/22 23:28:28;;;;;;;1.52;1.42;;;;;;;16.68;100.00;91358.91;5032706;28;20487;-67
2023/06/22 23:30:54;;;;;;;1.73;1.60;;;;;;;16.61;100.00;91355.97;5033182;28;20140;-68
2023/06/22 23:33:20;;;;;;;0.90;0.90;;;;;;;16.62;100.00;91352.19;5033115;28;20117;-68
2023/06/22 23:35:45;;;;;;;2.20;2.00;;;;;;;16.67;100.00;91351.19;5032636;28;20030;-67
2023/06/22 23:38:11;;;;;;;3.55;1.88;;;;;;;16.65;100.00;91342.66;5033069;28;20025;-68
2023/06/22 23:40:36;;;;;;;1.42;1.33;;;;;;;16.63;100.00;91356.44;5032678;28;20041;-67
2023/06/22 23:43:03;;;;;;;2.78;2.25;;;;;;;16.50;100.00;91354.06;5032372;28;20093;-68
2023/06/22 23:45:28;;;;;;;1.85;1.75;;;;;;;16.46;100.00;91344.00;5032840;28;20118;-68
2023/06/22 23:47:55;;;;;;;2.25;1.70;;;;;;;16.40;100.00;91353.34;5032325;28;20064;-68
2023/06/22 23:50:20;;;;;;;1.98;1.80;;;;;;;16.38;100.00;91354.81;5031970;28;20410;-68
2023/06/22 23:52:48;;;;;;;1.90;1.58;;;;;;;16.37;100.00;91361.31;5032153;28;20583;-67
2023/06/22 23:55:14;;;;;;;1.83;1.73;;;;;;;16.33;100.00;91357.72;5032456;28;20135;-68
2023/06/22 23:57:40;;;;;;;1.38;1.38;;;;;;;16.35;100.00;91356.28;5032300;28;20057;-67
